sensor_id;sensor_type;location;lat;lon;timestamp;pressure;altitude;pressure_sealevel;temperature;humidity
32298;BME280;18782;48.984;8.548;2022-12-08T00:01:17;99690.50;;;-0.03;100.00
32298;BME280;18782;48.984;8.548;2022-12-08T00:03:45;99685.25;;;-0.06;100.00
32298;BME280;18782;48.984;8.548;2022-12-08T00:06:21;99685.25;;;-0.06;100.00
32298;BME280;18782;48.984;8.548;2022-12-08T00:09:12;99686.81;;;-0.08;100.00
32298;BME280;18782;48.984;8.548;2022-12-08T00:11:54;99691.09;;;-0.07;100.00
32298;BME280;18782;48.984;8.548;2022-12-08T00:14:24;99689.16;;;-0.11;100.00
32298;BME280;18782;48.984;8.548;2022-12-08T00:16:52;99685.56;;;-0.15;100.00
32298;BME280;18782;48.984;8.548;2022-12-08T00:19:20;99693.03;;;-0.16;100.00
32298;BME280;18782;48.984;8.548;2022-12-08T00:21:49;99687.81;;;-0.19;100.00
32298;BME280;18782;48.984;8.548;2022-12-08T00:24:18;99682.38;;;-0.25;100.00
32298;BME280;18782;48.984;8.548;2022-12-08T00:26:46;99678.69;;;-0.31;100.00
32298;BME280;18782;48.984;8.548;2022-12-08T00:29:14;99676.75;;;-0.35;100.00
32298;BME280;18782;48.984;8.548;2022-12-08T00:31:43;99671.28;;;-0.41;100.00
32298;BME280;18782;48.984;8.548;2022-12-08T00:34:12;99668.47;;;-0.45;100.00
32298;BME280;18782;48.984;8.548;2022-12-08T00:36:40;99667.59;;;-0.46;100.00
32298;BME280;18782;48.984;8.548;2022-12-08T00:39:11;99669.06;;;-0.49;100.00
32298;BME280;18782;48.984;8.548;2022-12-08T00:41:39;99674.03;;;-0.51;100.00
32298;BME280;18782;48.984;8.548;2022-12-08T00:44:25;99661.25;;;-0.53;100.00
32298;BME280;18782;48.984;8.548;2022-12-08T00:46:52;99661.25;;;-0.53;100.00
32298;BME280;18782;48.984;8.548;2022-12-08T00:49:20;99650.28;;;-0.53;100.00
32298;BME280;18782;48.984;8.548;2022-12-08T00:51:47;99643.31;;;-0.57;100.00
32298;BME280;18782;48.984;8.548;2022-12-08T00:54:17;99645.84;;;-0.57;100.00
32298;BME280;18782;48.984;8.548;2022-12-08T00:56:45;99640.66;;;-0.59;100.00
32298;BME280;18782;48.984;8.548;2022-12-08T00:59:13;99631.25;;;-0.61;100.00
32298;BME280;18782;48.984;8.548;2022-12-08T01:01:42;99636.09;;;-0.64;100.00
32298;BME280;18782;48.984;8.548;2022-12-08T01:04:12;99631.03;;;-0.64;100.00
32298;BME280;18782;48.984;8.548;2022-12-08T01:06:41;99643.66;;;-0.64;100.00
32298;BME280;18782;48.984;8.548;2022-12-08T01:09:10;99631.72;;;-0.67;100.00
32298;BME280;18782;48.984;8.548;2022-12-08T01:11:40;99639.19;;;-0.68;100.00
32298;BME280;18782;48.984;8.548;2022-12-08T01:14:07;99625.59;;;-0.70;100.00
32298;BME280;18782;48.984;8.548;2022-12-08T01:16:36;99626.56;;;-0.68;100.00
32298;BME280;18782;48.984;8.548;2022-12-08T01:19:06;99637.44;;;-0.69;100.00
32298;BME280;18782;48.984;8.548;2022-12-08T01:21:33;99632.22;;;-0.72;100.00
32298;BME280;18782;48.984;8.548;2022-12-08T01:24:01;99637.75;;;-0.78;100.00
32298;BME280;18782;48.984;8.548;2022-12-08T01:26:29;99642.13;;;-0.75;100.00
32298;BME280;18782;48.984;8.548;2022-12-08T01:28:58;99633.56;;;-0.77;100.00
32298;BME280;18782;48.984;8.548;2022-12-08T01:31:25;99630.06;;;-0.80;100.00
32298;BME280;18782;48.984;8.548;2022-12-08T01:33:53;99637.47;;;-0.83;100.00
32298;BME280;18782;48.984;8.548;2022-12-08T01:36:22;99638.41;;;-0.81;100.00
32298;BME280;18782;48.984;8.548;2022-12-08T01:38:51;99632.41;;;-0.83;100.00
32298;BME280;18782;48.984;8.548;2022-12-08T01:41:21;99636.69;;;-0.82;100.00
32298;BME280;18782;48.984;8.548;2022-12-08T01:43:58;99646.78;;;-0.82;100.00
32298;BME280;18782;48.984;8.548;2022-12-08T01:46:28;99645.03;;;-0.83;100.00
32298;BME280;18782;48.984;8.548;2022-12-08T01:49:01;99640.84;;;-0.82;100.00
32298;BME280;18782;48.984;8.548;2022-12-08T01:51:45;99645.91;;;-0.82;100.00
32298;BME280;18782;48.984;8.548;2022-12-08T01:54:15;99643.25;;;-0.84;100.00
32298;BME280;18782;48.984;8.548;2022-12-08T01:56:49;99634.94;;;-0.83;100.00
32298;BME280;18782;48.984;8.548;2022-12-08T01:59:21;99634.94;;;-0.83;100.00
32298;BME280;18782;48.984;8.548;2022-12-08T02:01:49;99631.41;;;-0.85;100.00
32298;BME280;18782;48.984;8.548;2022-12-08T02:04:17;99629.66;;;-0.86;100.00
32298;BME280;18782;48.984;8.548;2022-12-08T02:06:45;99624.53;;;-0.87;100.00
32298;BME280;18782;48.984;8.548;2022-12-08T02:09:14;99623.66;;;-0.88;100.00
32298;BME280;18782;48.984;8.548;2022-12-08T02:11:41;99622.19;;;-0.84;100.00
32298;BME280;18782;48.984;8.548;2022-12-08T02:14:10;99621.50;;;-0.82;100.00
32298;BME280;18782;48.984;8.548;2022-12-08T02:16:44;99623.47;;;-0.77;100.00
32298;BME280;18782;48.984;8.548;2022-12-08T02:22:10;99602.56;;;-0.75;100.00
32298;BME280;18782;48.984;8.548;2022-12-08T02:24:46;99603.41;;;-0.74;100.00
32298;BME280;18782;48.984;8.548;2022-12-08T02:27:27;99594.88;;;-0.76;100.00
32298;BME280;18782;48.984;8.548;2022-12-08T02:30:10;99602.25;;;-0.80;100.00
32298;BME280;18782;48.984;8.548;2022-12-08T02:33:02;99602.09;;;-0.83;100.00
32298;BME280;18782;48.984;8.548;2022-12-08T02:35:44;99596.03;;;-0.85;100.00
32298;BME280;18782;48.984;8.548;2022-12-08T02:38:20;99593.50;;;-0.85;100.00
32298;BME280;18782;48.984;8.548;2022-12-08T02:40:56;99590.97;;;-0.85;100.00
32298;BME280;18782;48.984;8.548;2022-12-08T02:43:28;99589.44;;;-0.83;100.00
32298;BME280;18782;48.984;8.548;2022-12-08T02:46:00;99588.66;;;-0.82;100.00
32298;BME280;18782;48.984;8.548;2022-12-08T02:48:29;99587.88;;;-0.81;100.00
32298;BME280;18782;48.984;8.548;2022-12-08T02:51:00;99584.41;;;-0.83;100.00
32298;BME280;18782;48.984;8.548;2022-12-08T02:53:30;99585.94;;;-0.85;100.00
32298;BME280;18782;48.984;8.548;2022-12-08T02:56:02;99574.06;;;-0.86;100.00
32298;BME280;18782;48.984;8.548;2022-12-08T02:58:49;99580.69;;;-0.88;100.00
32298;BME280;18782;48.984;8.548;2022-12-08T03:01:43;99570.38;;;-0.91;100.00
32298;BME280;18782;48.984;8.548;2022-12-08T03:04:21;99566.13;;;-0.92;100.00
32298;BME280;18782;48.984;8.548;2022-12-08T03:07:00;99558.53;;;-0.92;100.00
32298;BME280;18782;48.984;8.548;2022-12-08T03:09:35;99558.53;;;-0.92;100.00
32298;BME280;18782;48.984;8.548;2022-12-08T03:12:11;99551.53;;;-0.96;100.00
32298;BME280;18782;48.984;8.548;2022-12-08T03:14:44;99552.69;;;-0.91;100.00
32298;BME280;18782;48.984;8.548;2022-12-08T03:17:14;99551.53;;;-0.96;100.00
32298;BME280;18782;48.984;8.548;2022-12-08T03:19:45;99548.06;;;-0.98;100.00
32298;BME280;18782;48.984;8.548;2022-12-08T03:22:18;99549.59;;;-1.00;100.00
32298;BME280;18782;48.984;8.548;2022-12-08T03:24:48;99547.84;;;-1.01;100.00
32298;BME280;18782;48.984;8.548;2022-12-08T03:27:17;99547.66;;;-1.04;100.00
32298;BME280;18782;48.984;8.548;2022-12-08T03:29:47;99538.91;;;-1.09;100.00
32298;BME280;18782;48.984;8.548;2022-12-08T03:32:21;99537.16;;;-1.10;100.00
32298;BME280;18782;48.984;8.548;2022-12-08T03:34:53;99540.44;;;-1.11;100.00
32298;BME280;18782;48.984;8.548;2022-12-08T03:37:26;99532.22;;;-1.09;100.00
32298;BME280;18782;48.984;8.548;2022-12-08T03:39:54;99528.81;;;-1.09;100.00
32298;BME280;18782;48.984;8.548;2022-12-08T03:42:22;99523.75;;;-1.09;100.00
32298;BME280;18782;48.984;8.548;2022-12-08T03:44:49;99526.88;;;-1.13;100.00
32298;BME280;18782;48.984;8.548;2022-12-08T03:47:17;99526.88;;;-1.13;100.00
32298;BME280;18782;48.984;8.548;2022-12-08T03:49:44;99525.78;;;-1.17;100.00
32298;BME280;18782;48.984;8.548;2022-12-08T03:52:12;99528.41;;;-1.15;100.00
32298;BME280;18782;48.984;8.548;2022-12-08T03:54:41;99520.81;;;-1.15;100.00
32298;BME280;18782;48.984;8.548;2022-12-08T03:57:08;99520.16;;;-1.13;100.00
32298;BME280;18782;48.984;8.548;2022-12-08T03:59:36;99522.00;;;-1.10;100.00
32298;BME280;18782;48.984;8.548;2022-12-08T04:02:04;99513.66;;;-1.09;100.00
32298;BME280;18782;48.984;8.548;2022-12-08T04:04:31;99508.78;;;-1.06;100.00
32298;BME280;18782;48.984;8.548;2022-12-08T04:06:59;99508.78;;;-1.06;100.00
32298;BME280;18782;48.984;8.548;2022-12-08T04:09:26;99503.06;;;-1.03;100.00
32298;BME280;18782;48.984;8.548;2022-12-08T04:11:55;99504.09;;;-1.00;100.00
32298;BME280;18782;48.984;8.548;2022-12-08T04:14:23;99501.22;;;-0.93;100.00
32298;BME280;18782;48.984;8.548;2022-12-08T04:16:50;99502.47;;;-0.86;100.00
32298;BME280;18782;48.984;8.548;2022-12-08T04:19:18;99505.06;;;-0.85;100.00
32298;BME280;18782;48.984;8.548;2022-12-08T04:21:46;99505.84;;;-0.86;100.00
32298;BME280;18782;48.984;8.548;2022-12-08T04:24:13;99493.22;;;-0.86;100.00
32298;BME280;18782;48.984;8.548;2022-12-08T04:26:41;99494.97;;;-0.85;100.00
32298;BME280;18782;48.984;8.548;2022-12-08T04:29:10;99491.47;;;-0.87;100.00
32298;BME280;18782;48.984;8.548;2022-12-08T04:31:38;99488.00;;;-0.89;100.00
32298;BME280;18782;48.984;8.548;2022-12-08T04:34:06;99496.31;;;-0.90;100.00
32298;BME280;18782;48.984;8.548;2022-12-08T04:36:33;99492.16;;;-0.89;100.00
32298;BME280;18782;48.984;8.548;2022-12-08T04:39:01;99489.75;;;-0.88;100.00
32298;BME280;18782;48.984;8.548;2022-12-08T04:41:28;99487.28;;;-0.86;100.00
32298;BME280;18782;48.984;8.548;2022-12-08T04:43:56;99481.53;;;-0.84;100.00
32298;BME280;18782;48.984;8.548;2022-12-08T04:46:25;99479.13;;;-0.82;100.00
32298;BME280;18782;48.984;8.548;2022-12-08T04:48:52;99480.66;;;-0.84;100.00
32298;BME280;18782;48.984;8.548;2022-12-08T04:51:20;99478.25;;;-0.83;100.00
32298;BME280;18782;48.984;8.548;2022-12-08T04:53:48;99480.00;;;-0.82;100.00
32298;BME280;18782;48.984;8.548;2022-12-08T04:56:17;99476.69;;;-0.81;100.00
32298;BME280;18782;48.984;8.548;2022-12-08T04:58:45;99478.44;;;-0.80;100.00
32298;BME280;18782;48.984;8.548;2022-12-08T05:01:13;99479.31;;;-0.79;100.00
32298;BME280;18782;48.984;8.548;2022-12-08T05:03:42;99481.94;;;-0.77;100.00
32298;BME280;18782;48.984;8.548;2022-12-08T05:06:11;99478.63;;;-0.76;100.00
32298;BME280;18782;48.984;8.548;2022-12-08T05:08:40;99481.94;;;-0.77;100.00
32298;BME280;18782;48.984;8.548;2022-12-08T05:11:09;99477.47;;;-0.82;100.00
32298;BME280;18782;48.984;8.548;2022-12-08T05:13:37;99475.13;;;-0.79;100.00
32298;BME280;18782;48.984;8.548;2022-12-08T05:16:07;99486.13;;;-0.78;100.00
32298;BME280;18782;48.984;8.548;2022-12-08T05:18:36;99477.84;;;-0.75;100.00
32298;BME280;18782;48.984;8.548;2022-12-08T05:21:05;99475.53;;;-0.72;100.00
32298;BME280;18782;48.984;8.548;2022-12-08T05:23:33;99470.25;;;-0.75;100.00
32298;BME280;18782;48.984;8.548;2022-12-08T05:26:01;99477.34;;;-0.70;100.00
32298;BME280;18782;48.984;8.548;2022-12-08T05:28:28;99476.69;;;-0.67;100.00
32298;BME280;18782;48.984;8.548;2022-12-08T05:33:50;99479.56;;;-0.61;100.00
32298;BME280;18782;48.984;8.548;2022-12-08T05:36:19;99482.19;;;-0.60;100.00
32298;BME280;18782;48.984;8.548;2022-12-08T05:38:46;99481.91;;;-0.64;100.00
32298;BME280;18782;48.984;8.548;2022-12-08T05:41:16;99475.38;;;-0.61;100.00
32298;BME280;18782;48.984;8.548;2022-12-08T05:43:44;99472.94;;;-0.59;100.00
32298;BME280;18782;48.984;8.548;2022-12-08T05:46:12;99470.41;;;-0.59;100.00
32298;BME280;18782;48.984;8.548;2022-12-08T05:48:40;99469.47;;;-0.61;100.00
32298;BME280;18782;48.984;8.548;2022-12-08T05:51:15;99467.88;;;-0.59;100.00
32298;BME280;18782;48.984;8.548;2022-12-08T05:53:45;99470.41;;;-0.59;100.00
32298;BME280;18782;48.984;8.548;2022-12-08T05:56:13;99476.63;;;-0.54;100.00
32298;BME280;18782;48.984;8.548;2022-12-08T05:58:40;99473.50;;;-0.50;100.00
32298;BME280;18782;48.984;8.548;2022-12-08T06:01:17;99471.25;;;-0.45;100.00
32298;BME280;18782;48.984;8.548;2022-12-08T06:03:45;99465.50;;;-0.43;100.00
32298;BME280;18782;48.984;8.548;2022-12-08T06:06:13;99467.50;;;-0.37;100.00
32298;BME280;18782;48.984;8.548;2022-12-08T06:08:40;99469.16;;;-0.38;100.00
32298;BME280;18782;48.984;8.548;2022-12-08T06:11:16;99460.78;;;-0.37;100.00
32298;BME280;18782;48.984;8.548;2022-12-08T06:13:44;99479.41;;;-0.36;100.00
32298;BME280;18782;48.984;8.548;2022-12-08T06:16:12;99476.16;;;-0.34;100.00
32298;BME280;18782;48.984;8.548;2022-12-08T06:18:40;99470.31;;;-0.33;100.00
32298;BME280;18782;48.984;8.548;2022-12-08T06:21:09;99464.47;;;-0.32;100.00
32298;BME280;18782;48.984;8.548;2022-12-08T06:23:38;99465.25;;;-0.33;100.00
32298;BME280;18782;48.984;8.548;2022-12-08T06:26:07;99459.41;;;-0.32;99.95
32298;BME280;18782;48.984;8.548;2022-12-08T06:28:37;99462.72;;;-0.33;99.85
32298;BME280;18782;48.984;8.548;2022-12-08T06:31:06;99470.31;;;-0.33;100.00
32298;BME280;18782;48.984;8.548;2022-12-08T06:33:35;99468.00;;;-0.30;100.00
32298;BME280;18782;48.984;8.548;2022-12-08T06:36:03;99462.13;;;-0.29;100.00
32298;BME280;18782;48.984;8.548;2022-12-08T06:38:31;99473.41;;;-0.23;100.00
32298;BME280;18782;48.984;8.548;2022-12-08T06:40:59;99474.78;;;-0.29;99.93
32298;BME280;18782;48.984;8.548;2022-12-08T06:43:27;99472.53;;;-0.24;100.00
32298;BME280;18782;48.984;8.548;2022-12-08T06:45:56;99477.66;;;-0.22;100.00
32298;BME280;18782;48.984;8.548;2022-12-08T06:48:23;99471.75;;;-0.23;100.00
32298;BME280;18782;48.984;8.548;2022-12-08T06:50:51;99475.16;;;-0.22;100.00
32298;BME280;18782;48.984;8.548;2022-12-08T06:53:19;99480.41;;;-0.19;100.00
32298;BME280;18782;48.984;8.548;2022-12-08T06:55:50;99486.50;;;-0.16;100.00
32298;BME280;18782;48.984;8.548;2022-12-08T06:58:25;99484.06;;;-0.14;100.00
32298;BME280;18782;48.984;8.548;2022-12-08T07:00:53;99477.34;;;-0.14;100.00
32298;BME280;18782;48.984;8.548;2022-12-08T07:03:22;99475.88;;;-0.10;100.00
32298;BME280;18782;48.984;8.548;2022-12-08T07:05:54;99481.09;;;-0.07;100.00
32298;BME280;18782;48.984;8.548;2022-12-08T07:08:29;99472.72;;;-0.06;100.00
32298;BME280;18782;48.984;8.548;2022-12-08T07:10:57;99477.84;;;0.23;100.00
32298;BME280;18782;48.984;8.548;2022-12-08T07:13:25;99468.41;;;0.36;100.00
32298;BME280;18782;48.984;8.548;2022-12-08T07:15:52;99473.31;;;0.47;100.00
32298;BME280;18782;48.984;8.548;2022-12-08T07:18:21;99472.59;;;0.50;100.00
32298;BME280;18782;48.984;8.548;2022-12-08T07:20:49;99479.84;;;0.59;100.00
32298;BME280;18782;48.984;8.548;2022-12-08T07:23:16;99486.97;;;0.66;100.00
32298;BME280;18782;48.984;8.548;2022-12-08T07:25:44;99483.75;;;0.68;98.79
32298;BME280;18782;48.984;8.548;2022-12-08T07:28:11;99484.44;;;0.66;98.12
32298;BME280;18782;48.984;8.548;2022-12-08T07:30:39;99478.34;;;0.62;97.84
32298;BME280;18782;48.984;8.548;2022-12-08T07:33:07;99486.03;;;0.64;97.71
32298;BME280;18782;48.984;8.548;2022-12-08T07:35:36;99486.19;;;0.67;96.95
32298;BME280;18782;48.984;8.548;2022-12-08T07:38:03;99485.16;;;0.63;97.25
32298;BME280;18782;48.984;8.548;2022-12-08T07:40:31;99487.69;;;0.63;97.76
32298;BME280;18782;48.984;8.548;2022-12-08T07:42:58;99483.59;;;0.65;97.36
32298;BME280;18782;48.984;8.548;2022-12-08T07:45:26;99487.25;;;0.70;96.95
32298;BME280;18782;48.984;8.548;2022-12-08T07:47:57;99478.69;;;0.68;96.95
32298;BME280;18782;48.984;8.548;2022-12-08T07:50:25;99482.09;;;0.69;97.23
32298;BME280;18782;48.984;8.548;2022-12-08T07:52:54;99481.31;;;0.70;97.67
32298;BME280;18782;48.984;8.548;2022-12-08T07:55:21;99470.97;;;0.82;96.97
32298;BME280;18782;48.984;8.548;2022-12-08T07:57:49;99467.81;;;0.86;95.67
32298;BME280;18782;48.984;8.548;2022-12-08T08:00:18;99467.66;;;0.83;96.20
32298;BME280;18782;48.984;8.548;2022-12-08T08:02:46;99463.44;;;0.83;96.21
32298;BME280;18782;48.984;8.548;2022-12-08T08:05:13;99462.56;;;0.83;96.60
32298;BME280;18782;48.984;8.548;2022-12-08T08:07:41;99461.03;;;0.85;96.58
32298;BME280;18782;48.984;8.548;2022-12-08T08:10:12;99459.09;;;0.81;96.23
32298;BME280;18782;48.984;8.548;2022-12-08T08:12:39;99463.97;;;0.77;96.17
32298;BME280;18782;48.984;8.548;2022-12-08T08:15:08;99456.03;;;0.86;98.84
32298;BME280;18782;48.984;8.548;2022-12-08T08:17:36;99455.94;;;0.85;97.49
32298;BME280;18782;48.984;8.548;2022-12-08T08:20:05;99458.63;;;0.88;97.15
32298;BME280;18782;48.984;8.548;2022-12-08T08:22:34;99449.63;;;0.93;97.72
32298;BME280;18782;48.984;8.548;2022-12-08T08:25:02;99450.44;;;1.08;97.01
32298;BME280;18782;48.984;8.548;2022-12-08T08:27:32;99448.75;;;1.40;100.00
32298;BME280;18782;48.984;8.548;2022-12-08T08:29:59;99447.34;;;1.61;100.00
32298;BME280;18782;48.984;8.548;2022-12-08T08:32:31;99445.50;;;1.75;97.75
32298;BME280;18782;48.984;8.548;2022-12-08T08:34:59;99456.53;;;1.75;93.65
32298;BME280;18782;48.984;8.548;2022-12-08T08:37:27;99453.06;;;1.73;93.46
32298;BME280;18782;48.984;8.548;2022-12-08T08:39:54;99463.59;;;1.81;96.72
32298;BME280;18782;48.984;8.548;2022-12-08T08:42:22;99459.25;;;1.78;95.84
32298;BME280;18782;48.984;8.548;2022-12-08T08:44:51;99458.50;;;1.81;95.34
32298;BME280;18782;48.984;8.548;2022-12-08T08:47:19;99458.56;;;1.82;94.28
32298;BME280;18782;48.984;8.548;2022-12-08T08:49:47;99463.19;;;1.90;94.00
32298;BME280;18782;48.984;8.548;2022-12-08T08:52:14;99453.19;;;1.93;93.83
32298;BME280;18782;48.984;8.548;2022-12-08T08:54:42;99450.00;;;1.97;93.38
32298;BME280;18782;48.984;8.548;2022-12-08T08:57:09;99449.38;;;2.01;93.99
32298;BME280;18782;48.984;8.548;2022-12-08T08:59:37;99451.97;;;2.02;94.24
32298;BME280;18782;48.984;8.548;2022-12-08T09:02:09;99446.19;;;2.05;93.34
32298;BME280;18782;48.984;8.548;2022-12-08T09:04:41;99446.03;;;2.02;94.27
32298;BME280;18782;48.984;8.548;2022-12-08T09:07:10;99437.16;;;2.10;94.14
32298;BME280;18782;48.984;8.548;2022-12-08T09:09:38;99434.25;;;2.20;93.40
32298;BME280;18782;48.984;8.548;2022-12-08T09:12:06;99439.78;;;2.29;93.23
32298;BME280;18782;48.984;8.548;2022-12-08T09:14:34;99439.38;;;2.56;94.95
32298;BME280;18782;48.984;8.548;2022-12-08T09:17:01;99433.56;;;2.58;93.48
32298;BME280;18782;48.984;8.548;2022-12-08T09:19:30;99434.72;;;2.65;92.20
32298;BME280;18782;48.984;8.548;2022-12-08T09:21:58;99433.28;;;2.70;91.24
32298;BME280;18782;48.984;8.548;2022-12-08T09:24:26;99432.34;;;2.68;91.34
32298;BME280;18782;48.984;8.548;2022-12-08T09:26:53;99426.59;;;2.72;91.85
32298;BME280;18782;48.984;8.548;2022-12-08T09:29:21;99429.44;;;2.78;91.51
32298;BME280;18782;48.984;8.548;2022-12-08T09:31:49;99434.16;;;2.88;90.60
32298;BME280;18782;48.984;8.548;2022-12-08T09:34:16;99432.09;;;2.99;90.93
32298;BME280;18782;48.984;8.548;2022-12-08T09:36:45;99429.78;;;3.04;90.48
32298;BME280;18782;48.984;8.548;2022-12-08T09:39:13;99429.63;;;3.01;91.05
32298;BME280;18782;48.984;8.548;2022-12-08T09:41:42;99428.75;;;3.00;91.19
32298;BME280;18782;48.984;8.548;2022-12-08T09:47:21;99418.84;;;3.24;92.12
32298;BME280;18782;48.984;8.548;2022-12-08T09:49:55;99425.38;;;3.38;91.65
32298;BME280;18782;48.984;8.548;2022-12-08T09:52:29;99413.34;;;3.54;91.43
32298;BME280;18782;48.984;8.548;2022-12-08T09:55:02;99415.22;;;3.77;91.81
32298;BME280;18782;48.984;8.548;2022-12-08T09:57:35;99412.13;;;3.84;92.11
32298;BME280;18782;48.984;8.548;2022-12-08T10:00:05;99406.81;;;3.99;91.13
32298;BME280;18782;48.984;8.548;2022-12-08T10:02:33;99403.97;;;4.12;88.98
32298;BME280;18782;48.984;8.548;2022-12-08T10:05:01;99396.19;;;4.30;87.65
32298;BME280;18782;48.984;8.548;2022-12-08T10:07:37;99390.53;;;4.37;87.77
32298;BME280;18782;48.984;8.548;2022-12-08T10:10:13;99389.53;;;4.55;85.49
32298;BME280;18782;48.984;8.548;2022-12-08T10:12:51;99387.81;;;4.76;85.67
32298;BME280;18782;48.984;8.548;2022-12-08T10:15:32;99386.53;;;4.87;85.08
32298;BME280;18782;48.984;8.548;2022-12-08T10:18:11;99391.34;;;5.02;83.78
32298;BME280;18782;48.984;8.548;2022-12-08T10:20:40;99387.13;;;5.03;83.19
32298;BME280;18782;48.984;8.548;2022-12-08T10:23:17;99378.78;;;5.07;81.10
32298;BME280;18782;48.984;8.548;2022-12-08T10:25:47;99381.91;;;4.77;79.90
32298;BME280;18782;48.984;8.548;2022-12-08T10:28:15;99380.03;;;4.73;80.40
32298;BME280;18782;48.984;8.548;2022-12-08T10:30:43;99372.75;;;4.82;80.80
32298;BME280;18782;48.984;8.548;2022-12-08T10:33:14;99375.28;;;4.60;80.60
32298;BME280;18782;48.984;8.548;2022-12-08T10:35:45;99377.19;;;4.88;80.74
32298;BME280;18782;48.984;8.548;2022-12-08T10:38:20;99367.34;;;4.97;80.07
32298;BME280;18782;48.984;8.548;2022-12-08T10:40:50;99367.63;;;5.05;79.75
32298;BME280;18782;48.984;8.548;2022-12-08T10:43:21;99372.16;;;5.12;79.40
32298;BME280;18782;48.984;8.548;2022-12-08T10:45:51;99379.94;;;4.92;76.74
32298;BME280;18782;48.984;8.548;2022-12-08T10:48:20;99368.91;;;4.71;77.65
32298;BME280;18782;48.984;8.548;2022-12-08T10:50:53;99362.97;;;4.70;78.88
32298;BME280;18782;48.984;8.548;2022-12-08T10:53:24;99371.69;;;4.77;79.58
32298;BME280;18782;48.984;8.548;2022-12-08T10:56:04;99366.47;;;4.74;79.36
32298;BME280;18782;48.984;8.548;2022-12-08T10:58:34;99361.69;;;4.82;79.52
32298;BME280;18782;48.984;8.548;2022-12-08T11:01:04;99356.56;;;4.82;78.69
32298;BME280;18782;48.984;8.548;2022-12-08T11:03:34;99347.47;;;4.88;79.09
32298;BME280;18782;48.984;8.548;2022-12-08T11:06:12;99340.84;;;4.93;79.06
32298;BME280;18782;48.984;8.548;2022-12-08T11:08:48;99345.25;;;4.53;78.70
32298;BME280;18782;48.984;8.548;2022-12-08T11:11:17;99329.16;;;4.54;78.27
32298;BME280;18782;48.984;8.548;2022-12-08T11:13:50;99325.19;;;4.60;77.97
32298;BME280;18782;48.984;8.548;2022-12-08T11:16:21;99330.09;;;4.56;77.97
32298;BME280;18782;48.984;8.548;2022-12-08T11:18:55;99327.59;;;4.35;78.79
32298;BME280;18782;48.984;8.548;2022-12-08T11:21:33;99332.31;;;4.26;79.47
32298;BME280;18782;48.984;8.548;2022-12-08T11:24:20;99320.56;;;4.29;79.68
32298;BME280;18782;48.984;8.548;2022-12-08T11:26:50;99315.28;;;4.25;79.80
32298;BME280;18782;48.984;8.548;2022-12-08T11:29:19;99316.16;;;4.25;80.05
32298;BME280;18782;48.984;8.548;2022-12-08T11:34:28;99321.13;;;4.22;79.23
32298;BME280;18782;48.984;8.548;2022-12-08T11:36:57;99314.47;;;4.26;78.20
32298;BME280;18782;48.984;8.548;2022-12-08T11:39:27;99321.72;;;4.37;81.29
32298;BME280;18782;48.984;8.548;2022-12-08T11:42:02;99312.06;;;4.29;83.78
32298;BME280;18782;48.984;8.548;2022-12-08T11:44:38;99308.28;;;4.19;79.16
32298;BME280;18782;48.984;8.548;2022-12-08T11:47:11;99307.59;;;4.23;80.32
32298;BME280;18782;48.984;8.548;2022-12-08T11:49:41;99307.75;;;4.28;80.62
32298;BME280;18782;48.984;8.548;2022-12-08T11:52:18;99300.59;;;4.40;81.71
32298;BME280;18782;48.984;8.548;2022-12-08T11:54:52;99303.34;;;4.44;79.78
32298;BME280;18782;48.984;8.548;2022-12-08T11:57:25;99301.25;;;4.34;78.47
32298;BME280;18782;48.984;8.548;2022-12-08T11:59:56;99296.00;;;4.31;78.09
32298;BME280;18782;48.984;8.548;2022-12-08T12:02:26;99288.81;;;4.21;79.03
32298;BME280;18782;48.984;8.548;2022-12-08T12:04:59;99285.59;;;4.25;79.67
32298;BME280;18782;48.984;8.548;2022-12-08T12:07:32;99296.00;;;4.31;79.95
32298;BME280;18782;48.984;8.548;2022-12-08T12:10:23;99293.28;;;4.27;78.41
32298;BME280;18782;48.984;8.548;2022-12-08T12:13:10;99286.41;;;4.24;78.00
32298;BME280;18782;48.984;8.548;2022-12-08T12:18:45;99284.22;;;4.33;76.94
32298;BME280;18782;48.984;8.548;2022-12-08T12:21:17;99276.78;;;4.17;76.29
32298;BME280;18782;48.984;8.548;2022-12-08T12:23:50;99270.16;;;4.22;77.36
32298;BME280;18782;48.984;8.548;2022-12-08T12:26:22;99274.59;;;4.26;77.20
32298;BME280;18782;48.984;8.548;2022-12-08T12:28:54;99271.34;;;4.30;76.48
32298;BME280;18782;48.984;8.548;2022-12-08T12:31:25;99280.84;;;4.34;75.62
32298;BME280;18782;48.984;8.548;2022-12-08T12:34:04;99274.13;;;4.36;75.64
32298;BME280;18782;48.984;8.548;2022-12-08T12:36:45;99269.81;;;4.34;76.03
32298;BME280;18782;48.984;8.548;2022-12-08T12:39:14;99262.44;;;4.41;75.35
32298;BME280;18782;48.984;8.548;2022-12-08T12:41:48;99264.38;;;4.49;75.53
32298;BME280;18782;48.984;8.548;2022-12-08T12:44:41;99261.06;;;4.50;75.93
32298;BME280;18782;48.984;8.548;2022-12-08T12:47:12;99266.16;;;4.50;75.20
32298;BME280;18782;48.984;8.548;2022-12-08T12:49:49;99259.28;;;4.49;76.01
32298;BME280;18782;48.984;8.548;2022-12-08T12:52:40;99259.53;;;4.55;74.99
32298;BME280;18782;48.984;8.548;2022-12-08T12:58:33;99254.06;;;4.68;73.91
32298;BME280;18782;48.984;8.548;2022-12-08T13:01:49;99251.94;;;4.80;74.31
32298;BME280;18782;48.984;8.548;2022-12-08T13:04:18;99249.81;;;4.91;74.81
32298;BME280;18782;48.984;8.548;2022-12-08T13:06:47;99247.66;;;5.02;75.21
32298;BME280;18782;48.984;8.548;2022-12-08T13:09:21;99251.31;;;5.10;75.73
32298;BME280;18782;48.984;8.548;2022-12-08T13:11:52;99246.66;;;5.22;73.51
32298;BME280;18782;48.984;8.548;2022-12-08T13:14:28;99248.28;;;5.20;72.60
32298;BME280;18782;48.984;8.548;2022-12-08T13:16:58;99248.44;;;5.01;67.71
32298;BME280;18782;48.984;8.548;2022-12-08T13:19:29;99253.16;;;4.90;68.52
32298;BME280;18782;48.984;8.548;2022-12-08T13:21:58;99248.16;;;4.69;69.45
32298;BME280;18782;48.984;8.548;2022-12-08T13:24:30;99251.66;;;4.71;70.57
32298;BME280;18782;48.984;8.548;2022-12-08T13:27:32;99241.53;;;4.74;71.21
32298;BME280;18782;48.984;8.548;2022-12-08T13:30:38;99251.19;;;4.59;69.03
32298;BME280;18782;48.984;8.548;2022-12-08T13:33:11;99253.91;;;4.63;68.97
32298;BME280;18782;48.984;8.548;2022-12-08T13:35:48;99247.50;;;4.51;69.43
32298;BME280;18782;48.984;8.548;2022-12-08T13:38:18;99240.66;;;4.50;69.56